Time;durP1;ratioP1;P1;durP2;ratioP2;P2;SDS_P1;SDS_P2;PMS_P1;PMS_P2;Temp;Humidity;BMP_temperature;BMP_pressure;BME280_temperature;BME280_humidity;BME280_pressure;Samples;Min_cycle;Max_cycle;Signal;HPM_P1;HPM_P2
2022/11/07 00:01:35;;;;;;;6.07;2.33;;;;;;;9.95;100.00;100581.50;5118014;27;20032;-86
2022/11/07 00:04:00;;;;;;;8.27;2.17;;;;;;;9.85;100.00;100592.81;5117362;28;20101;-87
2022/11/07 00:06:26;;;;;;;9.93;2.60;;;;;;;9.78;100.00;100583.88;5117658;28;20062;-87
2022/11/07 00:08:54;;;;;;;5.73;2.20;;;;;;;9.74;100.00;100590.78;5117069;28;20130;-87
2022/11/07 00:11:28;;;;;;;7.25;2.45;;;;;;;9.74;100.00;100596.19;5099754;28;20040;-87
2022/11/07 00:13:56;;;;;;;4.65;2.33;;;;;;;9.61;100.00;100603.34;5116524;28;20452;-87
2022/11/07 00:16:21;;;;;;;9.35;2.60;;;;;;;9.58;100.00;100602.94;5116094;28;20057;-87
2022/11/07 00:18:49;;;;;;;5.80;2.33;;;;;;;9.52;100.00;100591.06;5133373;27;20040;-87
2022/11/07 00:21:17;;;;;;;7.22;2.17;;;;;;;9.50;100.00;100597.78;5116383;28;20476;-87
2022/11/07 00:23:45;;;;;;;5.88;2.38;;;;;;;9.46;100.00;100608.19;5115354;28;20487;-88
2022/11/07 00:26:15;;;;;;;5.93;2.30;;;;;;;9.44;100.00;100603.00;5116075;28;20041;-87
2022/11/07 00:28:45;;;;;;;7.80;2.17;;;;;;;9.53;100.00;100606.28;5133396;27;20451;-86
2022/11/07 00:31:15;;;;;;;9.65;2.45;;;;;;;9.48;100.00;100603.41;5133209;27;20100;-86
2022/11/07 00:33:49;;;;;;;5.55;2.25;;;;;;;9.52;100.00;100615.44;5132626;27;20035;-87
2022/11/07 00:36:27;;;;;;;5.53;2.20;;;;;;;9.52;100.00;100611.91;5115959;28;20364;-87
2022/11/07 00:38:55;;;;;;;7.13;2.60;;;;;;;9.51;100.00;100610.25;5116681;28;20070;-87
2022/11/07 00:41:21;;;;;;;7.88;2.22;;;;;;;9.41;100.00;100608.84;5116938;28;20043;-87
2022/11/07 00:43:47;;;;;;;7.80;2.22;;;;;;;9.39;100.00;100607.38;5132752;27;20096;-87
2022/11/07 00:46:23;;;;;;;5.63;2.10;;;;;;;9.35;100.00;100604.28;5115296;28;20040;-87
2022/11/07 00:48:49;;;;;;;9.63;2.53;;;;;;;9.30;100.00;100607.63;5132427;27;20395;-87
2022/11/07 00:51:23;;;;;;;7.73;2.50;;;;;;;9.34;100.00;100612.63;5115051;28;20031;-87
2022/11/07 00:53:48;;;;;;;6.82;2.35;;;;;;;9.33;100.00;100619.06;5117330;28;20043;-87
2022/11/07 00:56:19;;;;;;;8.03;2.40;;;;;;;9.34;100.00;100621.56;5115350;28;20043;-87
2022/11/07 00:58:45;;;;;;;10.60;2.47;;;;;;;9.33;100.00;100624.47;5133120;27;20375;-87
2022/11/07 01:01:16;;;;;;;7.93;2.00;;;;;;;9.35;100.00;100623.22;5131949;27;20042;-87
2022/11/07 01:06:33;;;;;;;4.35;1.92;;;;;;;9.35;100.00;100625.13;5116602;28;20061;-87
2022/11/07 01:08:59;;;;;;;8.98;2.47;;;;;;;9.39;100.00;100626.34;5132626;27;20032;-87
2022/11/07 01:11:27;;;;;;;9.57;2.20;;;;;;;9.36;100.00;100624.91;5116154;28;20058;-87
2022/11/07 01:13:57;;;;;;;6.53;1.90;;;;;;;9.33;100.00;100628.03;5116416;28;20303;-87
2022/11/07 01:16:25;;;;;;;12.85;2.53;;;;;;;9.34;100.00;100632.38;5114973;28;20036;-87
2022/11/07 01:18:51;;;;;;;5.20;2.10;;;;;;;9.36;100.00;100629.47;5116531;28;20042;-87
2022/11/07 01:21:19;;;;;;;7.68;2.22;;;;;;;9.44;100.00;100645.50;5114597;28;20074;-87
2022/11/07 01:23:49;;;;;;;6.72;2.70;;;;;;;9.48;100.00;100647.56;5115821;28;20039;-87
2022/11/07 01:26:15;;;;;;;8.85;2.53;;;;;;;9.50;100.00;100649.22;5115845;28;20039;-87
2022/11/07 01:28:41;;;;;;;7.78;2.10;;;;;;;9.51;100.00;100649.03;5116323;28;20071;-86
2022/11/07 01:31:10;;;;;;;4.78;2.22;;;;;;;9.48;100.00;100661.09;5114037;28;20132;-86
2022/11/07 01:33:39;;;;;;;13.20;2.33;;;;;;;9.47;100.00;100658.59;5114628;28;20039;-86
2022/11/07 01:36:10;;;;;;;8.82;2.33;;;;;;;9.53;100.00;100659.63;5115457;28;20039;-86
2022/11/07 01:38:42;;;;;;;6.55;2.45;;;;;;;9.53;100.00;100651.50;5131827;27;20118;-86
2022/11/07 01:41:24;;;;;;;8.23;1.77;;;;;;;9.60;100.00;100661.28;5115007;28;20051;-86
2022/11/07 01:44:21;;;;;;;9.88;2.53;;;;;;;9.67;100.00;100653.13;5131436;27;20043;-86
2022/11/07 01:46:47;;;;;;;3.37;1.80;;;;;;;9.68;100.00;100652.06;5069645;28;20055;-86
2022/11/07 01:49:21;;;;;;;9.75;2.38;;;;;;;9.62;100.00;100650.22;5131519;27;20036;-86
2022/11/07 01:51:54;;;;;;;7.68;2.47;;;;;;;9.59;100.00;100654.19;5114695;28;20044;-86
2022/11/07 01:54:25;;;;;;;10.55;3.38;;;;;;;9.66;100.00;100649.56;5114595;28;20040;-86
2022/11/07 01:56:55;;;;;;;8.38;2.15;;;;;;;9.66;100.00;100655.00;5131768;27;20080;-85
2022/11/07 01:59:25;;;;;;;7.13;1.83;;;;;;;9.71;100.00;100657.06;5131339;27;20471;-86
2022/11/07 02:01:53;;;;;;;10.07;2.70;;;;;;;9.73;100.00;100659.56;5131247;27;20126;-86
2022/11/07 02:04:21;;;;;;;6.07;2.10;;;;;;;9.69;100.00;100661.88;5115733;28;20088;-85
2022/11/07 02:07:12;;;;;;;10.23;2.38;;;;;;;9.68;100.00;100664.78;5113833;28;20097;-85
2022/11/07 02:09:37;;;;;;;10.43;2.40;;;;;;;9.79;100.00;100661.44;5131241;27;20479;-85
2022/11/07 02:12:04;;;;;;;8.60;2.20;;;;;;;9.77;100.00;100658.94;5114553;28;20047;-86
2022/11/07 02:14:30;;;;;;;8.05;2.30;;;;;;;9.68;100.00;100652.06;5096643;28;20085;-85
2022/11/07 02:16:56;;;;;;;8.83;2.40;;;;;;;9.71;100.00;100664.38;5114697;28;20418;-85
2022/11/07 02:19:34;;;;;;;12.43;2.42;;;;;;;9.76;100.00;100664.56;5113856;28;20059;-85
2022/11/07 02:22:09;;;;;;;10.20;2.50;;;;;;;9.74;100.00;100664.75;5113782;28;20126;-85
2022/11/07 02:24:37;;;;;;;7.57;2.45;;;;;;;9.77;100.00;100666.22;5131165;27;20035;-85
2022/11/07 02:27:07;;;;;;;9.15;2.55;;;;;;;9.79;100.00;100664.13;5131632;27;20032;-85
2022/11/07 02:29:35;;;;;;;9.23;2.10;;;;;;;9.73;100.00;100665.81;5113560;28;20035;-86
2022/11/07 02:32:03;;;;;;;11.13;2.30;;;;;;;9.68;100.00;100657.50;5114476;28;20495;-86
2022/11/07 02:34:28;;;;;;;9.10;2.50;;;;;;;9.69;100.00;100661.88;5113180;28;20073;-85
2022/11/07 02:36:54;;;;;;;8.68;2.20;;;;;;;9.74;100.00;100667.47;5114516;28;20039;-86
2022/11/07 02:39:19;;;;;;;8.93;2.30;;;;;;;9.78;100.00;100663.28;5114284;28;20036;-85
2022/11/07 02:41:46;;;;;;;13.23;2.65;;;;;;;9.83;100.00;100671.63;5114403;28;20102;-86
2022/11/07 02:44:12;;;;;;;9.03;2.40;;;;;;;9.84;100.00;100658.88;5113135;28;20046;-85
2022/11/07 02:46:39;;;;;;;12.77;2.42;;;;;;;9.85;100.00;100660.56;5130538;27;20046;-85
2022/11/07 02:49:04;;;;;;;8.45;2.22;;;;;;;9.78;100.00;100652.44;5114397;28;20429;-85
2022/11/07 02:51:30;;;;;;;9.25;2.55;;;;;;;9.73;100.00;100664.97;5113583;28;20063;-86
2022/11/07 02:53:56;;;;;;;10.17;2.40;;;;;;;9.69;100.00;100658.34;5096369;28;20043;-85
2022/11/07 02:56:22;;;;;;;8.50;2.67;;;;;;;9.65;100.00;100657.91;5096216;28;20134;-85
2022/11/07 02:58:47;;;;;;;10.32;2.95;;;;;;;9.65;100.00;100655.22;5113994;28;20040;-85
2022/11/07 03:01:13;;;;;;;17.00;3.03;;;;;;;9.64;100.00;100648.13;5096737;28;20035;-85
2022/11/07 03:03:42;;;;;;;14.43;2.58;;;;;;;9.66;100.00;100652.28;5130389;27;20039;-86
2022/11/07 03:06:11;;;;;;;9.55;2.55;;;;;;;9.61;100.00;100645.84;5129903;27;20032;-85
2022/11/07 03:08:37;;;;;;;8.85;2.30;;;;;;;9.63;100.00;100647.31;5113048;28;20043;-86
2022/11/07 03:11:03;;;;;;;13.83;2.70;;;;;;;9.66;100.00;100648.75;5114539;28;20096;-85
2022/11/07 03:13:28;;;;;;;6.97;2.30;;;;;;;9.61;100.00;100657.53;5112866;28;20123;-86
2022/11/07 03:15:54;;;;;;;12.43;2.40;;;;;;;9.59;100.00;100653.38;5112647;28;20122;-85
2022/11/07 03:18:21;;;;;;;10.57;2.67;;;;;;;9.58;100.00;100657.09;5113519;28;20118;-86
2022/11/07 03:20:46;;;;;;;14.30;3.53;;;;;;;9.55;100.00;100660.25;5112779;28;20043;-85
2022/11/07 03:23:19;;;;;;;8.23;2.37;;;;;;;9.61;100.00;100662.94;5113235;28;20391;-86
2022/11/07 03:25:47;;;;;;;15.43;2.67;;;;;;;9.61;100.00;100656.69;5113212;28;20039;-86
2022/11/07 03:28:12;;;;;;;13.40;2.95;;;;;;;9.65;100.00;100656.06;5129805;28;20116;-86
2022/11/07 03:30:38;;;;;;;17.80;2.50;;;;;;;9.70;100.00;100655.41;5113005;28;20090;-85
2022/11/07 03:33:03;;;;;;;12.73;2.30;;;;;;;9.68;100.00;100646.66;5113016;28;20050;-86
2022/11/07 03:35:29;;;;;;;10.27;1.90;;;;;;;9.78;100.00;100646.22;5129844;28;20028;-85
2022/11/07 03:37:56;;;;;;;13.47;2.60;;;;;;;9.77;100.00;100653.50;5112424;28;20057;-86
2022/11/07 03:40:22;;;;;;;8.27;2.25;;;;;;;9.82;100.00;100648.28;5113621;28;20193;-86
2022/11/07 03:42:50;;;;;;;14.87;2.70;;;;;;;9.84;100.00;100667.03;5113042;28;20134;-86
2022/11/07 03:45:16;;;;;;;13.20;2.95;;;;;;;9.85;100.00;100657.84;5112658;28;20134;-86
2022/11/07 03:47:43;;;;;;;19.77;3.05;;;;;;;9.89;100.00;100661.81;5112762;28;20092;-86
2022/11/07 03:50:12;;;;;;;12.60;2.40;;;;;;;9.93;100.00;100654.06;5130002;28;20042;-86
2022/11/07 03:52:37;;;;;;;13.70;2.10;;;;;;;9.98;100.00;100662.34;5112855;28;20039;-85
2022/11/07 03:55:03;;;;;;;14.13;2.40;;;;;;;9.93;100.00;100654.06;5112518;28;20127;-86
2022/11/07 03:57:31;;;;;;;11.93;2.37;;;;;;;10.00;100.00;100658.41;5113419;28;20048;-86
2022/11/07 03:59:56;;;;;;;12.90;2.70;;;;;;;9.99;100.00;100669.44;5112343;28;20048;-86
2022/11/07 04:02:22;;;;;;;9.80;2.00;;;;;;;10.02;100.00;100658.19;5112652;28;20142;-86
2022/11/07 04:04:48;;;;;;;8.47;2.40;;;;;;;10.01;100.00;100645.69;5113059;28;20443;-85
2022/11/07 04:07:13;;;;;;;13.88;1.85;;;;;;;10.05;100.00;100651.50;5112881;28;20036;-86
2022/11/07 04:09:39;;;;;;;9.73;2.27;;;;;;;10.02;100.00;100652.75;5129914;28;20070;-85
2022/11/07 04:17:32;;;;;;;13.45;2.15;;;;;;;10.01;100.00;100661.94;5113994;28;20047;-86
2022/11/07 04:19:58;;;;;;;11.23;1.90;;;;;;;9.95;100.00;100662.78;5112105;28;20403;-85
2022/11/07 04:22:26;;;;;;;17.70;2.25;;;;;;;9.93;100.00;100659.47;5112441;28;20433;-85
2022/11/07 04:24:52;;;;;;;16.33;2.57;;;;;;;9.86;100.00;100664.09;5112320;28;20042;-86
2022/11/07 04:30:17;;;;;;;12.23;2.20;;;;;;;9.78;100.00;100657.03;5113315;28;20431;-85
2022/11/07 04:32:54;;;;;;;15.60;2.03;;;;;;;9.77;100.00;100656.22;5117054;28;20031;-85
2022/11/07 04:35:22;;;;;;;13.00;1.92;;;;;;;9.76;100.00;100661.88;5115590;28;20043;-86
2022/11/07 04:37:48;;;;;;;12.40;2.30;;;;;;;9.79;100.00;100664.97;5116054;28;20387;-86
2022/11/07 04:40:16;;;;;;;13.10;1.77;;;;;;;9.81;100.00;100673.69;5132809;27;20126;-86
2022/11/07 04:42:45;;;;;;;17.05;2.08;;;;;;;9.87;100.00;100663.88;5133107;27;20043;-85
2022/11/07 04:45:11;;;;;;;18.50;2.67;;;;;;;9.93;100.00;100670.31;5132771;27;20039;-86
2022/11/07 04:47:38;;;;;;;17.52;2.05;;;;;;;9.92;100.00;100671.34;5115956;28;20031;-86
2022/11/07 04:50:04;;;;;;;10.98;2.42;;;;;;;9.96;100.00;100669.88;5132993;27;20108;-86
2022/11/07 04:52:30;;;;;;;14.30;2.25;;;;;;;9.96;100.00;100678.00;5116526;28;20075;-85
2022/11/07 04:54:56;;;;;;;13.43;2.33;;;;;;;9.96;100.00;100672.59;5115077;28;20436;-86
2022/11/07 04:57:23;;;;;;;12.82;1.88;;;;;;;10.03;100.00;100678.00;5115415;28;20035;-85
2022/11/07 04:59:49;;;;;;;11.73;2.00;;;;;;;10.06;100.00;100672.97;5115980;28;20048;-85
2022/11/07 05:02:14;;;;;;;13.45;2.13;;;;;;;10.11;100.00;100672.31;5114889;28;20119;-86
2022/11/07 05:04:40;;;;;;;14.00;1.93;;;;;;;10.09;100.00;100669.00;5098259;28;20039;-86
2022/11/07 05:07:07;;;;;;;16.30;2.10;;;;;;;10.08;100.00;100673.56;5115316;28;20122;-85
2022/11/07 05:09:33;;;;;;;11.77;2.10;;;;;;;10.03;100.00;100678.00;5116201;28;20468;-85
2022/11/07 05:12:00;;;;;;;12.80;2.10;;;;;;;10.04;100.00;100679.63;5115419;28;20172;-86
2022/11/07 05:14:25;;;;;;;15.10;2.60;;;;;;;10.04;100.00;100685.06;5116020;28;20039;-86
2022/11/07 05:16:55;;;;;;;17.42;2.47;;;;;;;10.09;100.00;100686.09;5097978;28;20510;-86
2022/11/07 05:19:21;;;;;;;13.52;2.08;;;;;;;10.10;100.00;100674.19;5098206;28;20050;-86
2022/11/07 05:21:46;;;;;;;15.53;2.17;;;;;;;10.15;100.00;100676.25;5115227;28;20043;-85
2022/11/07 05:24:13;;;;;;;12.90;2.00;;;;;;;10.17;100.00;100675.00;5098295;28;20040;-86
2022/11/07 05:26:39;;;;;;;13.93;2.15;;;;;;;10.22;100.00;100687.91;5132361;27;20390;-85
2022/11/07 05:29:08;;;;;;;15.90;2.25;;;;;;;10.21;100.00;100685.41;5131826;27;20028;-85
2022/11/07 05:31:36;;;;;;;14.52;2.63;;;;;;;10.19;100.00;100691.88;5098323;28;20059;-86
2022/11/07 05:34:02;;;;;;;12.27;2.33;;;;;;;10.21;100.00;100688.94;5114674;28;20031;-85
2022/11/07 05:36:27;;;;;;;10.27;1.90;;;;;;;10.19;100.00;100681.03;5115177;28;20104;-86
2022/11/07 05:38:53;;;;;;;13.73;1.90;;;;;;;10.24;100.00;100683.09;5132267;27;20031;-86
2022/11/07 05:41:20;;;;;;;15.13;2.50;;;;;;;10.18;100.00;100689.38;5097607;28;20483;-86
2022/11/07 05:43:45;;;;;;;12.35;1.98;;;;;;;10.21;100.00;100683.53;5131086;27;20088;-86
2022/11/07 05:46:11;;;;;;;22.73;3.10;;;;;;;10.19;100.00;100686.44;5115095;28;20039;-86
2022/11/07 05:48:37;;;;;;;15.13;2.00;;;;;;;10.22;100.00;100684.38;5131962;27;20493;-86
2022/11/07 05:51:04;;;;;;;14.80;2.08;;;;;;;10.26;100.00;100678.28;5114140;28;20126;-86
2022/11/07 05:53:30;;;;;;;17.07;2.10;;;;;;;10.23;100.00;100680.59;5114333;28;20066;-86
2022/11/07 05:55:56;;;;;;;15.77;2.05;;;;;;;10.26;100.00;100685.56;5114245;28;20476;-86
2022/11/07 05:58:22;;;;;;;8.15;1.80;;;;;;;10.27;100.00;100685.34;5115007;28;20042;-86
2022/11/07 06:00:48;;;;;;;17.37;2.47;;;;;;;10.27;100.00;100690.78;5114259;28;20112;-86
2022/11/07 06:03:14;;;;;;;14.52;1.88;;;;;;;10.25;100.00;100682.03;5131340;27;20463;-86
2022/11/07 06:05:42;;;;;;;8.35;1.85;;;;;;;10.27;100.00;100682.66;5097399;28;20059;-85
2022/11/07 06:08:12;;;;;;;10.95;1.70;;;;;;;10.33;100.00;100687.25;5132075;27;20067;-85
2022/11/07 06:10:40;;;;;;;13.55;1.98;;;;;;;10.36;100.00;100685.97;5130356;27;20067;-85
2022/11/07 06:13:09;;;;;;;14.80;1.93;;;;;;;10.40;100.00;100692.63;5115266;28;20480;-85
2022/11/07 06:15:35;;;;;;;11.65;1.77;;;;;;;10.39;100.00;100688.25;5130635;27;20035;-86
2022/11/07 06:18:02;;;;;;;13.35;2.28;;;;;;;10.36;100.00;100685.97;5130825;27;20035;-84
2022/11/07 06:20:28;;;;;;;16.65;2.33;;;;;;;10.32;100.00;100688.25;5114827;28;20051;-84
2022/11/07 06:23:04;;;;;;;15.90;2.60;;;;;;;10.29;100.00;100688.69;5130839;27;20046;-84
2022/11/07 06:25:31;;;;;;;14.90;2.37;;;;;;;10.39;100.00;100690.13;5113475;28;20048;-85
2022/11/07 06:28:01;;;;;;;11.90;2.10;;;;;;;10.42;100.00;100695.94;5113735;28;20065;-85
2022/11/07 06:30:26;;;;;;;14.18;3.00;;;;;;;10.46;100.00;100697.16;5130192;27;20100;-85
2022/11/07 06:32:52;;;;;;;14.37;2.03;;;;;;;10.53;100.00;100703.38;5113537;28;20048;-85
2022/11/07 06:35:18;;;;;;;11.00;1.85;;;;;;;10.52;100.00;100701.72;5114233;28;20039;-85
2022/11/07 06:37:43;;;;;;;13.33;1.67;;;;;;;10.57;100.00;100697.53;5114715;28;20074;-85
2022/11/07 06:40:09;;;;;;;12.37;1.93;;;;;;;10.61;100.00;100710.44;5097257;28;20114;-85
2022/11/07 06:42:35;;;;;;;11.77;2.28;;;;;;;10.61;100.00;100699.56;5096573;28;20484;-85
2022/11/07 06:45:00;;;;;;;10.87;2.00;;;;;;;10.62;100.00;100705.84;5113151;28;20091;-85
2022/11/07 06:47:25;;;;;;;11.67;2.50;;;;;;;10.51;100.00;100710.94;5113400;28;20127;-85
2022/11/07 06:49:51;;;;;;;11.68;1.55;;;;;;;10.60;100.00;100714.22;5113139;28;20127;-86
2022/11/07 06:52:16;;;;;;;12.77;2.33;;;;;;;10.51;100.00;100718.22;5115301;28;20039;-85
2022/11/07 06:54:42;;;;;;;14.33;2.10;;;;;;;10.56;100.00;100729.25;5113840;28;20032;-85
2022/11/07 06:57:08;;;;;;;12.00;1.83;;;;;;;10.63;100.00;100723.78;5113790;28;20071;-85
2022/11/07 06:59:34;;;;;;;20.10;2.10;;;;;;;10.63;100.00;100716.47;5113298;28;20075;-86
2022/11/07 07:01:59;;;;;;;19.73;3.40;;;;;;;10.69;100.00;100729.16;5112623;28;20031;-86
2022/11/07 07:04:25;;;;;;;13.23;1.83;;;;;;;10.70;100.00;100725.41;5130143;27;20277;-86
2022/11/07 07:06:50;;;;;;;14.07;1.87;;;;;;;10.74;100.00;100724.97;5112815;28;20036;-85
2022/11/07 07:09:15;;;;;;;13.80;2.30;;;;;;;10.76;100.00;100731.00;5112782;28;20089;-85
2022/11/07 07:11:44;;;;;;;14.20;2.05;;;;;;;10.79;100.00;100733.28;5114048;28;20047;-86
2022/11/07 07:14:10;;;;;;;13.37;2.17;;;;;;;10.79;100.00;100744.97;5113224;28;20067;-85
2022/11/07 07:16:38;;;;;;;14.68;2.03;;;;;;;10.80;100.00;100745.81;5112801;28;20032;-85
2022/11/07 07:19:03;;;;;;;17.17;1.90;;;;;;;10.82;100.00;100739.09;5095666;28;20118;-86
2022/11/07 07:21:29;;;;;;;13.43;2.03;;;;;;;10.86;100.00;100747.63;5112126;28;20153;-86
2022/11/07 07:23:55;;;;;;;11.67;2.20;;;;;;;10.89;100.00;100741.75;5112913;28;20277;-85
2022/11/07 07:26:20;;;;;;;13.57;2.63;;;;;;;10.91;100.00;100750.53;5112402;28;20032;-85
2022/11/07 07:28:48;;;;;;;10.47;2.23;;;;;;;11.02;100.00;100746.25;5112415;28;20530;-85
2022/11/07 07:31:14;;;;;;;14.63;2.20;;;;;;;11.09;100.00;100754.34;5129487;28;20052;-86
2022/11/07 07:33:44;;;;;;;8.70;1.90;;;;;;;11.11;100.00;100754.97;5112227;28;20096;-85
2022/11/07 07:36:10;;;;;;;17.98;2.50;;;;;;;11.11;100.00;100757.69;5129417;28;20035;-85
2022/11/07 07:38:36;;;;;;;10.82;1.92;;;;;;;11.12;100.00;100764.78;5112811;28;20050;-86
2022/11/07 07:41:02;;;;;;;10.57;1.30;;;;;;;11.16;100.00;100745.13;5112453;28;20427;-85
2022/11/07 07:43:28;;;;;;;13.55;2.55;;;;;;;11.22;100.00;100767.84;5129390;28;20039;-85
2022/11/07 07:46:02;;;;;;;12.27;1.90;;;;;;;11.23;100.00;100773.06;5112437;28;20375;-86
2022/11/07 07:48:28;;;;;;;14.85;1.65;;;;;;;11.26;100.00;100785.34;5112581;28;20081;-85
2022/11/07 07:50:54;;;;;;;11.23;1.83;;;;;;;11.27;100.00;100769.88;5095297;28;20409;-86
2022/11/07 07:53:20;;;;;;;18.73;2.00;;;;;;;11.27;100.00;100772.59;5113042;28;20036;-86
2022/11/07 07:55:46;;;;;;;16.63;2.33;;;;;;;11.32;100.00;100784.44;5129294;28;20024;-85
2022/11/07 07:58:11;;;;;;;11.23;1.70;;;;;;;11.36;100.00;100766.66;5128816;28;20482;-85
2022/11/07 08:00:37;;;;;;;10.07;2.13;;;;;;;11.39;100.00;100773.53;5111942;28;20380;-86
2022/11/07 08:03:07;;;;;;;16.03;2.53;;;;;;;11.48;100.00;100784.94;5113310;28;20281;-85
2022/11/07 08:05:35;;;;;;;14.70;2.20;;;;;;;11.54;100.00;100776.72;5112774;28;20031;-86
2022/11/07 08:08:00;;;;;;;15.60;2.30;;;;;;;11.56;100.00;100780.06;5117686;27;20043;-86
2022/11/07 08:10:28;;;;;;;17.43;2.40;;;;;;;11.59;100.00;100784.22;5133821;27;20110;-85
2022/11/07 08:12:54;;;;;;;9.43;2.22;;;;;;;11.58;100.00;100782.56;5116322;28;20092;-85
2022/11/07 08:15:20;;;;;;;14.07;2.23;;;;;;;11.64;100.00;100778.13;5117048;28;20027;-85
2022/11/07 08:17:46;;;;;;;11.20;1.90;;;;;;;11.68;100.00;100774.72;5133713;27;20042;-86
2022/11/07 08:20:14;;;;;;;17.70;2.13;;;;;;;11.72;100.00;100780.53;5115873;28;20028;-85
2022/11/07 08:22:40;;;;;;;7.65;1.58;;;;;;;11.83;100.00;100785.22;5133373;27;20462;-85
2022/11/07 08:25:07;;;;;;;11.43;1.80;;;;;;;11.89;100.00;100788.94;5133502;27;20032;-85
2022/11/07 08:27:33;;;;;;;14.80;2.13;;;;;;;11.83;100.00;100795.28;5115678;28;20089;-85
2022/11/07 08:29:59;;;;;;;19.90;2.10;;;;;;;11.80;100.00;100791.13;5115837;28;20383;-85
2022/11/07 08:32:28;;;;;;;9.13;1.83;;;;;;;11.79;100.00;100800.31;5132974;27;20460;-85
2022/11/07 08:34:54;;;;;;;16.38;2.40;;;;;;;11.72;100.00;100791.41;5116579;28;20100;-85
2022/11/07 08:37:20;;;;;;;11.52;2.17;;;;;;;11.73;100.00;100796.59;5116813;28;20039;-85
2022/11/07 08:39:51;;;;;;;15.18;2.08;;;;;;;11.73;100.00;100790.34;5115782;28;20479;-85
2022/11/07 08:42:16;;;;;;;10.05;1.70;;;;;;;11.77;100.00;100799.72;5116029;28;20463;-85
2022/11/07 08:44:45;;;;;;;14.47;1.83;;;;;;;11.83;100.00;100790.66;5115704;28;20042;-86
2022/11/07 08:47:10;;;;;;;10.85;1.60;;;;;;;11.96;100.00;100803.31;5116172;28;20027;-85
2022/11/07 08:49:36;;;;;;;11.00;1.97;;;;;;;12.01;100.00;100806.19;5115446;28;20466;-85
2022/11/07 08:52:01;;;;;;;14.27;2.93;;;;;;;12.14;100.00;100809.84;5098528;28;20551;-85
2022/11/07 08:54:29;;;;;;;15.53;1.90;;;;;;;12.21;100.00;100818.72;5115972;28;20040;-85
2022/11/07 08:56:57;;;;;;;10.77;1.95;;;;;;;12.25;100.00;100819.94;5115625;28;20474;-85
2022/11/07 08:59:22;;;;;;;14.93;2.58;;;;;;;12.31;100.00;100821.75;5098585;28;20055;-86
2022/11/07 09:01:48;;;;;;;16.07;2.13;;;;;;;12.31;100.00;100816.31;5132324;27;20464;-85
2022/11/07 09:04:13;;;;;;;10.27;2.00;;;;;;;12.36;100.00;100831.97;5115995;28;20436;-85
2022/11/07 09:06:39;;;;;;;8.53;2.17;;;;;;;12.41;100.00;100842.97;5097974;28;20455;-85
2022/11/07 09:09:04;;;;;;;9.50;1.60;;;;;;;12.42;99.81;100834.59;5115460;28;20265;-85
2022/11/07 09:11:29;;;;;;;10.93;2.17;;;;;;;12.45;100.00;100831.41;5115119;28;20462;-85
2022/11/07 09:13:57;;;;;;;9.33;1.67;;;;;;;12.45;99.52;100839.56;5097951;28;20134;-85
2022/11/07 09:16:23;;;;;;;12.15;1.90;;;;;;;12.40;100.00;100841.31;5114966;28;20032;-85
2022/11/07 09:18:50;;;;;;;17.55;1.75;;;;;;;12.39;100.00;100848.66;5113623;28;20130;-85
2022/11/07 09:21:16;;;;;;;12.50;2.80;;;;;;;12.46;99.86;100840.44;5132119;27;20058;-85
2022/11/07 09:23:42;;;;;;;10.15;1.63;;;;;;;12.46;99.80;100854.03;5115250;28;20051;-85
2022/11/07 09:26:08;;;;;;;10.57;1.90;;;;;;;12.48;100.00;100853.81;5114562;28;20471;-85
2022/11/07 09:28:33;;;;;;;14.85;2.30;;;;;;;12.55;99.82;100846.34;5132191;27;20036;-85
2022/11/07 09:31:01;;;;;;;11.80;1.97;;;;;;;12.61;99.37;100845.47;5131829;27;20055;-85
2022/11/07 09:33:27;;;;;;;10.60;1.70;;;;;;;12.61;98.77;100856.34;5131688;27;20047;-85
2022/11/07 09:35:52;;;;;;;13.50;2.00;;;;;;;12.58;99.09;100851.38;5116182;28;20058;-85
2022/11/07 09:38:18;;;;;;;5.63;1.53;;;;;;;12.63;98.33;100848.78;5114854;28;20043;-87
2022/11/07 09:41:03;;;;;;;9.20;1.60;;;;;;;12.66;99.36;100852.94;5131642;27;20395;-85
2022/11/07 09:43:47;;;;;;;13.00;2.30;;;;;;;12.75;98.51;100867.91;5114433;28;20055;-85
2022/11/07 09:46:43;;;;;;;9.43;2.00;;;;;;;12.84;98.14;100852.91;5114372;28;20040;-85
2022/11/07 09:49:24;;;;;;;15.80;2.08;;;;;;;12.76;97.48;100848.59;5116344;27;20031;-85
2022/11/07 09:51:57;;;;;;;9.70;2.03;;;;;;;12.71;97.57;100848.47;5115898;28;20035;-85
2022/11/07 09:54:28;;;;;;;12.93;2.00;;;;;;;12.72;97.89;100852.84;5131638;27;20028;-84
2022/11/07 09:56:56;;;;;;;11.05;2.05;;;;;;;12.78;97.54;100843.78;5131495;27;20065;-85
2022/11/07 09:59:28;;;;;;;9.53;1.80;;;;;;;12.85;97.42;100856.47;5114255;28;20057;-85
2022/11/07 10:01:54;;;;;;;10.30;2.28;;;;;;;12.96;97.13;100856.50;5115316;28;20024;-85
2022/11/07 10:04:22;;;;;;;8.07;1.90;;;;;;;13.01;96.95;100860.41;5096744;28;20044;-85
2022/11/07 10:07:08;;;;;;;12.20;2.10;;;;;;;12.96;97.43;100863.84;5115265;28;20287;-86
2022/11/07 10:09:36;;;;;;;12.07;1.98;;;;;;;12.86;98.25;100856.25;5131506;27;20503;-85
2022/11/07 10:12:28;;;;;;;11.43;2.10;;;;;;;12.82;97.16;100855.84;5114223;28;20126;-86
2022/11/07 10:14:57;;;;;;;9.48;1.80;;;;;;;12.89;97.32;100855.78;5113808;28;20031;-86
2022/11/07 10:17:28;;;;;;;10.88;2.20;;;;;;;12.96;96.79;100869.28;5115065;28;20454;-86
2022/11/07 10:20:12;;;;;;;11.67;1.90;;;;;;;13.06;96.24;100866.00;5113818;28;20040;-86
2022/11/07 10:23:07;;;;;;;13.40;2.25;;;;;;;13.22;95.78;100878.16;5114040;28;20045;-85
2022/11/07 10:26:08;;;;;;;10.75;1.77;;;;;;;13.42;93.96;100878.72;5113946;28;20040;-86
2022/11/07 10:28:52;;;;;;;10.43;1.70;;;;;;;13.49;93.01;100868.53;5114322;28;20032;-85
2022/11/07 10:31:18;;;;;;;38.10;4.75;;;;;;;13.59;92.35;100876.13;5113297;28;20445;-86
2022/11/07 10:33:55;;;;;;;12.27;2.03;;;;;;;13.59;91.27;100864.41;5114322;28;20044;-86
2022/11/07 10:36:29;;;;;;;8.07;1.58;;;;;;;13.65;91.31;100869.72;5113489;28;20119;-85
2022/11/07 10:39:00;;;;;;;11.43;2.08;;;;;;;13.68;90.59;100887.53;5130574;27;20031;-86
2022/11/07 10:41:28;;;;;;;8.52;2.08;;;;;;;13.66;89.93;100876.84;5113438;28;20031;-85
2022/11/07 10:43:54;;;;;;;13.87;2.07;;;;;;;13.73;90.48;100879.47;5113611;28;20032;-85
2022/11/07 10:46:26;;;;;;;11.30;1.65;;;;;;;13.86;90.05;100889.31;5113501;28;20046;-85
2022/11/07 10:48:57;;;;;;;13.87;2.07;;;;;;;13.92;89.53;100880.22;5114201;28;20122;-85
2022/11/07 10:51:37;;;;;;;13.30;2.25;;;;;;;13.91;90.13;100877.72;5113523;28;20382;-86
2022/11/07 10:54:04;;;;;;;15.80;2.05;;;;;;;13.93;88.18;100883.75;5113142;28;20036;-86
2022/11/07 10:56:42;;;;;;;13.93;2.35;;;;;;;13.91;88.59;100888.63;5114252;28;20063;-85
2022/11/07 10:59:22;;;;;;;11.05;2.20;;;;;;;13.91;87.81;100889.44;5113479;28;20114;-86
2022/11/07 11:01:56;;;;;;;12.90;1.93;;;;;;;13.82;87.74;100893.59;5114495;28;20039;-86
2022/11/07 11:04:32;;;;;;;15.70;2.03;;;;;;;13.80;88.58;100898.44;5112944;28;20036;-86
2022/11/07 11:06:58;;;;;;;10.15;1.90;;;;;;;13.74;88.73;100892.03;5129896;27;20108;-84
2022/11/07 11:09:28;;;;;;;9.90;1.80;;;;;;;13.75;89.10;100887.41;5112980;28;20027;-85
2022/11/07 11:11:54;;;;;;;10.50;2.13;;;;;;;13.76;88.41;100881.72;5130335;27;20031;-86
2022/11/07 11:14:22;;;;;;;11.70;2.27;;;;;;;13.79;88.06;100888.59;5112902;28;20387;-86
2022/11/07 11:16:55;;;;;;;11.90;2.10;;;;;;;13.83;87.33;100879.72;5113047;28;20548;-86
2022/11/07 11:19:29;;;;;;;18.50;2.20;;;;;;;13.80;88.40;100885.66;5114723;28;20104;-85
2022/11/07 11:21:57;;;;;;;16.23;2.30;;;;;;;13.85;87.75;100884.94;5129925;28;20169;-86
2022/11/07 11:24:30;;;;;;;12.73;2.33;;;;;;;13.89;87.68;100866.19;5112403;28;20042;-86
2022/11/07 11:27:04;;;;;;;13.55;2.38;;;;;;;13.86;87.35;100872.94;5112859;28;20035;-86
2022/11/07 11:29:43;;;;;;;11.48;2.15;;;;;;;14.06;87.07;100871.78;5112509;28;20032;-85
2022/11/07 11:32:29;;;;;;;17.63;2.57;;;;;;;14.60;84.82;100866.94;5113688;28;20616;-86
2022/11/07 11:35:07;;;;;;;13.52;1.73;;;;;;;15.13;83.10;100872.34;5113651;28;20074;-85